ADDS METAR Data INFO
IDs: Format: Raw Decoded Include TAF

Data at: 0753 UTC 17 Oct 2017

KSLG 170656Z AUTO 10004KT 10SM CLR 07/05 A3030 RMK AO2 SLP259 T00670050 TSNO $
KSLG 170556Z AUTO 00000KT 10SM CLR 07/05 A3031 RMK AO2 SLP262 T00670050 10150 20061 401940039 58000 $
KSLG 170456Z AUTO 00000KT 10SM CLR 07/05 A3031 RMK AO2 SLP262 T00720050 $
KSLG 170356Z AUTO 11003KT 10SM CLR 08/06 A3031 RMK AO2 SLP264 T00830056 $
KSLG 170256Z AUTO 11003KT 10SM CLR 08/06 A3031 RMK AO2 SLP263 T00830056 50002 $
KSLG 170156Z AUTO 00000KT 10SM CLR 11/04 A3031 RMK AO2 SLP264 T01110044 $
KSLG 170056Z AUTO 00000KT 10SM CLR 12/04 A3031 RMK AO2 SLP267 T01220044 TSNO $
KSLG 162356Z AUTO 00000KT 10SM CLR 14/04 A3030 RMK AO2 SLP262 6//// T01440044 10194 20144 56010 $
KSLG 162256Z AUTO 12003KT 10SM CLR 18/03 A3031 RMK AO2 SLP264 T01780033 $
KSLG 162156Z AUTO VRB04KT 10SM CLR 19/03 A3032 RMK AO2 SLP267 T01890028 $
KSLG 162056Z AUTO 08007KT 050V140 10SM CLR 19/03 A3033 RMK AO2 SLP270 6//// T01890028 56028 $
KSLG 161956Z AUTO 07005KT 10SM CLR 19/03 A3036 RMK AO2 SLP278 T01940033 $
KSLG 161856Z AUTO VRB05KT 10SM CLR 18/03 A3038 RMK AO2 SLP287 T01830028 $
KSLG 161756Z AUTO VRB05KT 10SM CLR 18/02 A3042 RMK AO2 SLP299 T01780022 10178 20039 58008 $
KSLG 161656Z AUTO VRB04KT 10SM CLR 16/02 A3044 RMK AO2 SLP306 T01610017 $
KSLG 161556Z AUTO VRB06KT 10SM CLR 14/03 A3045 RMK AO2 SLP312 T01440033 $
KSLG 161456Z AUTO 09003KT 10SM CLR 12/06 A3044 RMK AO2 SLP310 T01220056 53008 $
KSLG 161356Z AUTO 00000KT 10SM CLR 09/06 A3044 RMK AO2 SLP308 T00940056 $
KSLG 161256Z AUTO 00000KT 10SM CLR 04/03 A3042 RMK AO2 SLP305 T00440033 $
KSLG 161156Z AUTO 00000KT 10SM CLR 04/03 A3042 RMK AO2 SLP304 T00390033 10083 20039 53006 $
KSLG 161056Z AUTO 00000KT 10SM CLR 05/03 A3041 RMK AO2 SLP297 T00500033 $
KSLG 160956Z AUTO 02003KT 10SM CLR 05/04 A3040 RMK AO2 SLP296 T00500039 $
KSLG 160856Z AUTO 00000KT 10SM CLR 06/04 A3040 RMK AO2 SLP293 T00610039 52004 $
KSLG 160756Z AUTO 00000KT 10SM CLR 07/04 A3040 RMK AO2 SLP293 T00670044 $
KSLG 160656Z AUTO 02004KT 10SM CLR 08/04 A3039 RMK AO2 SLP289 T00830039 $
KSLG 160556Z AUTO 03004KT 10SM CLR 08/04 A3039 RMK AO2 SLP288 T00830039 10117 20083 402500083 50004 $
KSLG 160456Z AUTO 03004KT 10SM CLR 09/04 A3039 RMK AO2 SLP290 T00890039 $
KSLG 160356Z AUTO 02004KT 10SM CLR 09/04 A3039 RMK AO2 SLP291 T00940039 $
KSLG 160256Z AUTO 01003KT 10SM CLR 10/04 A3037 RMK AO2 SLP286 T01000044 52015 $
KSLG 160156Z AUTO 36006KT 10SM CLR 09/04 A3036 RMK AO2 SLP281 T00940044 $
KSLG 160056Z AUTO 36005KT 10SM CLR 11/05 A3034 RMK AO2 SLP277 T01060050 $
KSLG 152356Z AUTO 35007KT 10SM CLR 12/05 A3033 RMK AO2 SLP270 T01170050 10183 20117 53004 $
KSLG 152256Z AUTO 34011KT 10SM CLR 16/06 A3032 RMK AO2 SLP263 T01610056 $
KSLG 152156Z AUTO 33011KT 10SM CLR 17/06 A3032 RMK AO2 SLP262 T01720061 $
KSLG 152056Z AUTO 34013KT 10SM CLR 18/07 A3032 RMK AO2 SLP261 T01780067 55002 $
KSLG 151956Z AUTO 34013G21KT 10SM CLR 18/06 A3031 RMK AO2 SLP259 T01780061 $